Terminal Aerodrome Forecast
Issued by NWS Jackson, MS

Home | Current Version | Previous Version | Text Only | Print | Product List | Glossary On
Versions: 1 2 3 4 5 6 7 8 9 10 11 12 13 14 15 16
000
FTUS44 KJAN 251720
TAFGLH
TAF
KGLH 251720Z 2518/2618 19012KT P6SM SCT040 BKN250
     FM252000 19012KT P6SM VCTS SCT040CB BKN250
     FM260000 18008KT P6SM SCT250
     FM260900 18006KT P6SM BKN015
     FM261400 18009KT P6SM OVC008=

USA.gov is the U.S. government's official web portal to all federal, state and local government web resources and services.